sensor_id;sensor_type;location;lat;lon;timestamp;pressure;altitude;pressure_sealevel;temperature;humidity
68376;BME280;55318;52.068;5.188;2024-02-21T00:00:07;102184.0;;;11.73;94.83
68376;BME280;55318;52.068;5.188;2024-02-21T00:01:43;102182.0;;;11.61;96.04
68376;BME280;55318;52.068;5.188;2024-02-21T00:03:19;102168.0;;;11.77;94.95
68376;BME280;55318;52.068;5.188;2024-02-21T00:06:32;102172.0;;;11.81;94.72
68376;BME280;55318;52.068;5.188;2024-02-21T00:08:09;102176.0;;;11.82;94.83
68376;BME280;55318;52.068;5.188;2024-02-21T00:09:44;102167.0;;;11.66;95.49
68376;BME280;55318;52.068;5.188;2024-02-21T00:12:57;102155.0;;;11.65;95.51
68376;BME280;55318;52.068;5.188;2024-02-21T00:14:33;102144.0;;;11.6;95.63
68376;BME280;55318;52.068;5.188;2024-02-21T00:16:09;102144.0;;;11.58;95.32
68376;BME280;55318;52.068;5.188;2024-02-21T00:19:21;102146.0;;;11.73;95.19
68376;BME280;55318;52.068;5.188;2024-02-21T00:20:57;102149.0;;;11.6;95.75
68376;BME280;55318;52.068;5.188;2024-02-21T00:22:33;102151.0;;;11.77;95.08
68376;BME280;55318;52.068;5.188;2024-02-21T00:24:09;102150.0;;;11.69;95.32
68376;BME280;55318;52.068;5.188;2024-02-21T00:27:21;102150.0;;;11.73;95.26
68376;BME280;55318;52.068;5.188;2024-02-21T00:28:58;102146.0;;;11.48;95.92
68376;BME280;55318;52.068;5.188;2024-02-21T00:30:34;102138.0;;;11.59;95.99
68376;BME280;55318;52.068;5.188;2024-02-21T00:33:46;102134.0;;;11.59;95.58
68376;BME280;55318;52.068;5.188;2024-02-21T00:35:22;102131.0;;;11.52;96.22
68376;BME280;55318;52.068;5.188;2024-02-21T00:36:58;102137.0;;;11.47;96.27
68376;BME280;55318;52.068;5.188;2024-02-21T00:40:11;102135.0;;;11.72;95.57
68376;BME280;55318;52.068;5.188;2024-02-21T00:41:47;102136.0;;;11.64;95.88
68376;BME280;55318;52.068;5.188;2024-02-21T00:43:23;102137.0;;;11.51;96.07
68376;BME280;55318;52.068;5.188;2024-02-21T00:46:36;102126.0;;;11.46;96.59
68376;BME280;55318;52.068;5.188;2024-02-21T00:48:12;102102.0;;;11.53;96.33
68376;BME280;55318;52.068;5.188;2024-02-21T00:49:48;102109.0;;;11.68;95.84
68376;BME280;55318;52.068;5.188;2024-02-21T00:51:24;102131.0;;;11.74;95.76
68376;BME280;55318;52.068;5.188;2024-02-21T00:54:36;102148.0;;;11.64;95.95
68376;BME280;55318;52.068;5.188;2024-02-21T00:56:12;102155.0;;;11.82;95.4
68376;BME280;55318;52.068;5.188;2024-02-21T00:57:48;102153.0;;;11.69;95.97
68376;BME280;55318;52.068;5.188;2024-02-21T01:01:02;102150.0;;;11.64;96.36
68376;BME280;55318;52.068;5.188;2024-02-21T01:02:37;102151.0;;;11.78;95.86
68376;BME280;55318;52.068;5.188;2024-02-21T01:04:14;102152.0;;;11.79;95.66
68376;BME280;55318;52.068;5.188;2024-02-21T01:07:26;102155.0;;;11.92;95.24
68376;BME280;55318;52.068;5.188;2024-02-21T01:09:02;102155.0;;;11.84;95.33
68376;BME280;55318;52.068;5.188;2024-02-21T01:10:38;102159.0;;;11.83;95.31
68376;BME280;55318;52.068;5.188;2024-02-21T01:13:51;102155.0;;;11.88;95.26
68376;BME280;55318;52.068;5.188;2024-02-21T01:15:27;102151.0;;;11.77;95.33
68376;BME280;55318;52.068;5.188;2024-02-21T01:17:04;102147.0;;;11.63;95.68
68376;BME280;55318;52.068;5.188;2024-02-21T01:18:39;102145.0;;;11.88;95.28
68376;BME280;55318;52.068;5.188;2024-02-21T01:21:52;102137.0;;;11.79;95.47
68376;BME280;55318;52.068;5.188;2024-02-21T01:23:28;102135.0;;;11.73;95.39
68376;BME280;55318;52.068;5.188;2024-02-21T01:25:04;102130.0;;;11.84;95.1
68376;BME280;55318;52.068;5.188;2024-02-21T01:28:18;102133.0;;;11.67;95.46
68376;BME280;55318;52.068;5.188;2024-02-21T01:29:54;102134.0;;;11.74;95.05
68376;BME280;55318;52.068;5.188;2024-02-21T01:31:30;102130.0;;;11.72;95.52
68376;BME280;55318;52.068;5.188;2024-02-21T01:34:42;102121.0;;;11.96;94.54
68376;BME280;55318;52.068;5.188;2024-02-21T01:36:18;102116.0;;;11.92;94.93
68376;BME280;55318;52.068;5.188;2024-02-21T01:37:54;102111.0;;;11.92;94.71
68376;BME280;55318;52.068;5.188;2024-02-21T01:39:31;102110.0;;;11.83;94.87
68376;BME280;55318;52.068;5.188;2024-02-21T01:42:43;102110.0;;;11.94;94.74
68376;BME280;55318;52.068;5.188;2024-02-21T01:44:19;102106.0;;;11.93;94.31
68376;BME280;55318;52.068;5.188;2024-02-21T01:45:56;102103.0;;;11.74;95.76
68376;BME280;55318;52.068;5.188;2024-02-21T01:49:11;102099.0;;;11.86;95.07
68376;BME280;55318;52.068;5.188;2024-02-21T01:50:49;102094.0;;;11.66;95.7
68376;BME280;55318;52.068;5.188;2024-02-21T01:52:25;102097.0;;;11.67;95.97
68376;BME280;55318;52.068;5.188;2024-02-21T01:55:38;102094.0;;;11.83;95.27
68376;BME280;55318;52.068;5.188;2024-02-21T01:57:14;102097.0;;;11.7;95.26
68376;BME280;55318;52.068;5.188;2024-02-21T01:58:50;102095.0;;;11.6;96.24
68376;BME280;55318;52.068;5.188;2024-02-21T02:00:28;102095.0;;;11.71;95.76
68376;BME280;55318;52.068;5.188;2024-02-21T02:03:42;102093.0;;;11.74;95.61
68376;BME280;55318;52.068;5.188;2024-02-21T02:05:19;102087.0;;;11.77;95.12
68376;BME280;55318;52.068;5.188;2024-02-21T02:06:57;102087.0;;;11.78;95.37
68376;BME280;55318;52.068;5.188;2024-02-21T02:10:13;102084.0;;;11.78;94.82
68376;BME280;55318;52.068;5.188;2024-02-21T02:11:49;102080.0;;;11.57;96.27
68376;BME280;55318;52.068;5.188;2024-02-21T02:13:24;102080.0;;;11.74;95.46
68376;BME280;55318;52.068;5.188;2024-02-21T02:15:03;102073.0;;;11.64;95.89
68376;BME280;55318;52.068;5.188;2024-02-21T02:18:19;102069.0;;;11.67;95.58
68376;BME280;55318;52.068;5.188;2024-02-21T02:19:56;102064.0;;;11.73;95.44
68376;BME280;55318;52.068;5.188;2024-02-21T02:21:36;102061.0;;;11.65;95.49
68376;BME280;55318;52.068;5.188;2024-02-21T02:24:57;102055.0;;;11.58;95.74
68376;BME280;55318;52.068;5.188;2024-02-21T02:26:34;102048.0;;;11.68;95.74
68376;BME280;55318;52.068;5.188;2024-02-21T02:28:10;102046.0;;;11.72;95.17
68376;BME280;55318;52.068;5.188;2024-02-21T02:29:46;102047.0;;;11.58;95.75
68376;BME280;55318;52.068;5.188;2024-02-21T02:32:58;102050.0;;;11.76;95.14
68376;BME280;55318;52.068;5.188;2024-02-21T02:34:34;102052.0;;;11.79;94.75
68376;BME280;55318;52.068;5.188;2024-02-21T02:36:11;102052.0;;;11.6;95.55
68376;BME280;55318;52.068;5.188;2024-02-21T02:39:25;102052.0;;;11.65;95.32
68376;BME280;55318;52.068;5.188;2024-02-21T02:41:01;102056.0;;;11.82;94.72
68376;BME280;55318;52.068;5.188;2024-02-21T02:42:37;102051.0;;;11.74;94.92
68376;BME280;55318;52.068;5.188;2024-02-21T02:45:49;102055.0;;;11.65;95.27
68376;BME280;55318;52.068;5.188;2024-02-21T02:47:25;102051.0;;;11.62;95.61
68376;BME280;55318;52.068;5.188;2024-02-21T02:49:01;102049.0;;;11.69;95.15
68376;BME280;55318;52.068;5.188;2024-02-21T02:50:37;102040.0;;;11.67;95.37
68376;BME280;55318;52.068;5.188;2024-02-21T02:53:50;102038.0;;;11.7;95.09
68376;BME280;55318;52.068;5.188;2024-02-21T02:55:26;102033.0;;;11.68;95.31
68376;BME280;55318;52.068;5.188;2024-02-21T02:57:02;102032.0;;;11.68;95.12
68376;BME280;55318;52.068;5.188;2024-02-21T03:00:14;102027.0;;;11.77;94.8
68376;BME280;55318;52.068;5.188;2024-02-21T03:01:51;102024.0;;;11.77;94.96
68376;BME280;55318;52.068;5.188;2024-02-21T03:03:27;102025.0;;;11.38;95.87
68376;BME280;55318;52.068;5.188;2024-02-21T03:06:49;102027.0;;;11.61;95.93
68376;BME280;55318;52.068;5.188;2024-02-21T03:08:25;102024.0;;;11.57;95.42
68376;BME280;55318;52.068;5.188;2024-02-21T03:10:02;102019.0;;;11.71;95.14
68376;BME280;55318;52.068;5.188;2024-02-21T03:11:39;102016.0;;;11.69;95.26
68376;BME280;55318;52.068;5.188;2024-02-21T03:14:51;102014.0;;;11.77;94.98
68376;BME280;55318;52.068;5.188;2024-02-21T03:16:27;102017.0;;;11.77;94.92
68376;BME280;55318;52.068;5.188;2024-02-21T03:18:03;102009.0;;;11.67;95.37
68376;BME280;55318;52.068;5.188;2024-02-21T03:21:16;102001.0;;;11.7;94.88
68376;BME280;55318;52.068;5.188;2024-02-21T03:22:52;101999.0;;;11.68;94.75
68376;BME280;55318;52.068;5.188;2024-02-21T03:24:31;102001.0;;;11.79;94.49
68376;BME280;55318;52.068;5.188;2024-02-21T03:27:43;102000.0;;;11.62;95.1
68376;BME280;55318;52.068;5.188;2024-02-21T03:29:19;101997.0;;;11.67;95.17
68376;BME280;55318;52.068;5.188;2024-02-21T03:30:56;101993.0;;;11.67;94.92
68376;BME280;55318;52.068;5.188;2024-02-21T03:32:32;101990.0;;;11.43;96.51
68376;BME280;55318;52.068;5.188;2024-02-21T03:37:22;101976.0;;;11.63;95.42
68376;BME280;55318;52.068;5.188;2024-02-21T03:38:58;101973.0;;;11.54;95.79
68376;BME280;55318;52.068;5.188;2024-02-21T03:42:11;101972.0;;;11.62;95.21
68376;BME280;55318;52.068;5.188;2024-02-21T03:43:47;101969.0;;;11.62;95.13
68376;BME280;55318;52.068;5.188;2024-02-21T03:45:24;101964.0;;;11.55;95.37
68376;BME280;55318;52.068;5.188;2024-02-21T03:48:36;101971.0;;;11.64;95.15
68376;BME280;55318;52.068;5.188;2024-02-21T03:50:13;101974.0;;;11.58;95.53
68376;BME280;55318;52.068;5.188;2024-02-21T03:51:49;101972.0;;;11.54;95.8
68376;BME280;55318;52.068;5.188;2024-02-21T03:53:25;101970.0;;;11.52;95.44
68376;BME280;55318;52.068;5.188;2024-02-21T03:56:38;101968.0;;;11.59;95.49
68376;BME280;55318;52.068;5.188;2024-02-21T03:58:15;101966.0;;;11.51;95.96
68376;BME280;55318;52.068;5.188;2024-02-21T03:59:51;101964.0;;;11.59;95.47
68376;BME280;55318;52.068;5.188;2024-02-21T04:03:04;101967.0;;;11.37;95.52
68376;BME280;55318;52.068;5.188;2024-02-21T04:04:42;101959.0;;;11.34;96.13
68376;BME280;55318;52.068;5.188;2024-02-21T04:06:19;101963.0;;;11.44;96.06
68376;BME280;55318;52.068;5.188;2024-02-21T04:09:31;101962.0;;;11.42;95.78
68376;BME280;55318;52.068;5.188;2024-02-21T04:11:07;101964.0;;;11.31;96.41
68376;BME280;55318;52.068;5.188;2024-02-21T04:12:43;101966.0;;;11.32;96.34
68376;BME280;55318;52.068;5.188;2024-02-21T04:14:19;101947.0;;;11.28;96.56
68376;BME280;55318;52.068;5.188;2024-02-21T04:17:31;101941.0;;;11.38;96.25
68376;BME280;55318;52.068;5.188;2024-02-21T04:19:07;101936.0;;;11.29;96.64
68376;BME280;55318;52.068;5.188;2024-02-21T04:20:43;101937.0;;;11.42;96.18
68376;BME280;55318;52.068;5.188;2024-02-21T04:23:56;101943.0;;;11.23;96.45
68376;BME280;55318;52.068;5.188;2024-02-21T04:25:32;101943.0;;;11.32;96.76
68376;BME280;55318;52.068;5.188;2024-02-21T04:27:08;101948.0;;;11.12;97.29
68376;BME280;55318;52.068;5.188;2024-02-21T04:30:21;101950.0;;;11.28;96.61
68376;BME280;55318;52.068;5.188;2024-02-21T04:31:57;101948.0;;;11.27;96.43
68376;BME280;55318;52.068;5.188;2024-02-21T04:33:33;101943.0;;;11.35;96.37
68376;BME280;55318;52.068;5.188;2024-02-21T04:36:45;101943.0;;;11.33;96.17
68376;BME280;55318;52.068;5.188;2024-02-21T04:38:21;101937.0;;;11.26;96.3
68376;BME280;55318;52.068;5.188;2024-02-21T04:39:58;101932.0;;;11.38;96.19
68376;BME280;55318;52.068;5.188;2024-02-21T04:41:34;101930.0;;;11.22;96.28
68376;BME280;55318;52.068;5.188;2024-02-21T04:44:46;101921.0;;;11.18;96.46
68376;BME280;55318;52.068;5.188;2024-02-21T04:46:22;101920.0;;;11.28;96.48
68376;BME280;55318;52.068;5.188;2024-02-21T04:47:58;101918.0;;;11.17;97.15
68376;BME280;55318;52.068;5.188;2024-02-21T04:51:11;101920.0;;;11.34;96.16
68376;BME280;55318;52.068;5.188;2024-02-21T04:52:47;101915.0;;;11.25;96.85
68376;BME280;55318;52.068;5.188;2024-02-21T04:54:23;101914.0;;;11.33;96.58
68376;BME280;55318;52.068;5.188;2024-02-21T04:57:40;101906.0;;;11.24;96.79
68376;BME280;55318;52.068;5.188;2024-02-21T04:59:16;101902.0;;;11.2;97.16
68376;BME280;55318;52.068;5.188;2024-02-21T05:00:53;101905.0;;;11.37;96.65
68376;BME280;55318;52.068;5.188;2024-02-21T05:02:29;101903.0;;;11.31;96.77
68376;BME280;55318;52.068;5.188;2024-02-21T05:05:41;101902.0;;;11.4;96.23
68376;BME280;55318;52.068;5.188;2024-02-21T05:07:17;101905.0;;;11.36;96.45
68376;BME280;55318;52.068;5.188;2024-02-21T05:08:53;101905.0;;;11.2;96.76
68376;BME280;55318;52.068;5.188;2024-02-21T05:12:06;101908.0;;;11.28;96.82
68376;BME280;55318;52.068;5.188;2024-02-21T05:13:41;101897.0;;;11.25;96.72
68376;BME280;55318;52.068;5.188;2024-02-21T05:15:19;101896.0;;;11.33;96.58
68376;BME280;55318;52.068;5.188;2024-02-21T05:18:31;101896.0;;;11.24;96.67
68376;BME280;55318;52.068;5.188;2024-02-21T05:20:08;101889.0;;;11.38;96.45
68376;BME280;55318;52.068;5.188;2024-02-21T05:21:44;101886.0;;;11.38;96.19
68376;BME280;55318;52.068;5.188;2024-02-21T05:23:20;101881.0;;;11.48;96.04
68376;BME280;55318;52.068;5.188;2024-02-21T05:26:32;101880.0;;;11.36;96.12
68376;BME280;55318;52.068;5.188;2024-02-21T05:28:08;101873.0;;;11.51;95.45
68376;BME280;55318;52.068;5.188;2024-02-21T05:29:47;101876.0;;;11.54;95.37
68376;BME280;55318;52.068;5.188;2024-02-21T05:33:04;101866.0;;;11.31;96.28
68376;BME280;55318;52.068;5.188;2024-02-21T05:34:40;101863.0;;;11.34;96.04
68376;BME280;55318;52.068;5.188;2024-02-21T05:36:16;101862.0;;;11.37;95.93
68376;BME280;55318;52.068;5.188;2024-02-21T05:39:28;101855.0;;;11.51;95.63
68376;BME280;55318;52.068;5.188;2024-02-21T05:41:04;101851.0;;;11.53;95.24
68376;BME280;55318;52.068;5.188;2024-02-21T05:42:41;101842.0;;;11.55;95.1
68376;BME280;55318;52.068;5.188;2024-02-21T05:44:18;101841.0;;;11.41;95.37
68376;BME280;55318;52.068;5.188;2024-02-21T05:47:30;101840.0;;;11.55;95.14
68376;BME280;55318;52.068;5.188;2024-02-21T05:49:06;101832.0;;;11.47;95.13
68376;BME280;55318;52.068;5.188;2024-02-21T05:50:43;101827.0;;;11.49;95.29
68376;BME280;55318;52.068;5.188;2024-02-21T05:53:55;101826.0;;;11.55;94.67
68376;BME280;55318;52.068;5.188;2024-02-21T05:55:31;101819.0;;;11.5;95.22
68376;BME280;55318;52.068;5.188;2024-02-21T05:57:07;101822.0;;;11.4;95.45
68376;BME280;55318;52.068;5.188;2024-02-21T06:00:20;101820.0;;;11.44;95.46
68376;BME280;55318;52.068;5.188;2024-02-21T06:01:56;101821.0;;;11.42;95.55
68376;BME280;55318;52.068;5.188;2024-02-21T06:03:33;101818.0;;;11.42;95.88
68376;BME280;55318;52.068;5.188;2024-02-21T06:05:10;101816.0;;;11.42;96.03
68376;BME280;55318;52.068;5.188;2024-02-21T06:08:22;101817.0;;;11.51;95.34
68376;BME280;55318;52.068;5.188;2024-02-21T06:09:58;101816.0;;;11.38;95.71
68376;BME280;55318;52.068;5.188;2024-02-21T06:11:34;101811.0;;;11.34;96.18
68376;BME280;55318;52.068;5.188;2024-02-21T06:14:46;101802.0;;;11.41;96.29
68376;BME280;55318;52.068;5.188;2024-02-21T06:16:22;101805.0;;;11.42;95.72
68376;BME280;55318;52.068;5.188;2024-02-21T06:17:58;101805.0;;;11.37;95.75
68376;BME280;55318;52.068;5.188;2024-02-21T06:21:11;101809.0;;;11.32;96.3
68376;BME280;55318;52.068;5.188;2024-02-21T06:22:48;101801.0;;;11.39;96.1
68376;BME280;55318;52.068;5.188;2024-02-21T06:24:24;101811.0;;;11.35;96.46
68376;BME280;55318;52.068;5.188;2024-02-21T06:27:36;101815.0;;;11.31;96.37
68376;BME280;55318;52.068;5.188;2024-02-21T06:29:12;101816.0;;;11.32;96.3
68376;BME280;55318;52.068;5.188;2024-02-21T06:30:48;101819.0;;;11.38;96.05
68376;BME280;55318;52.068;5.188;2024-02-21T06:32:24;101816.0;;;11.36;96.0
68376;BME280;55318;52.068;5.188;2024-02-21T06:35:36;101824.0;;;11.33;95.96
68376;BME280;55318;52.068;5.188;2024-02-21T06:37:16;101818.0;;;11.26;96.25
68376;BME280;55318;52.068;5.188;2024-02-21T06:38:52;101822.0;;;11.31;96.39
68376;BME280;55318;52.068;5.188;2024-02-21T06:42:04;101816.0;;;11.28;96.24
68376;BME280;55318;52.068;5.188;2024-02-21T06:43:40;101814.0;;;11.32;96.34
68376;BME280;55318;52.068;5.188;2024-02-21T06:45:16;101811.0;;;11.21;96.66
68376;BME280;55318;52.068;5.188;2024-02-21T06:48:29;101812.0;;;10.97;97.42
68376;BME280;55318;52.068;5.188;2024-02-21T06:50:06;101806.0;;;10.93;98.02
68376;BME280;55318;52.068;5.188;2024-02-21T06:51:42;101810.0;;;11.04;97.35
68376;BME280;55318;52.068;5.188;2024-02-21T06:53:18;101803.0;;;10.87;97.61
68376;BME280;55318;52.068;5.188;2024-02-21T06:56:31;101805.0;;;10.99;97.42
68376;BME280;55318;52.068;5.188;2024-02-21T06:58:07;101803.0;;;11.22;96.65
68376;BME280;55318;52.068;5.188;2024-02-21T06:59:43;101798.0;;;11.12;96.88
68376;BME280;55318;52.068;5.188;2024-02-21T07:02:55;101791.0;;;11.02;97.08
68376;BME280;55318;52.068;5.188;2024-02-21T07:04:31;101793.0;;;11.01;97.39
68376;BME280;55318;52.068;5.188;2024-02-21T07:06:07;101789.0;;;11.06;97.1
68376;BME280;55318;52.068;5.188;2024-02-21T07:09:19;101791.0;;;11.09;96.99
68376;BME280;55318;52.068;5.188;2024-02-21T07:10:55;101781.0;;;10.95;97.15
68376;BME280;55318;52.068;5.188;2024-02-21T07:12:32;101785.0;;;11.05;97.29
68376;BME280;55318;52.068;5.188;2024-02-21T07:15:44;101786.0;;;10.91;97.34
68376;BME280;55318;52.068;5.188;2024-02-21T07:17:20;101782.0;;;11.01;97.24
68376;BME280;55318;52.068;5.188;2024-02-21T07:18:56;101780.0;;;10.94;97.52
68376;BME280;55318;52.068;5.188;2024-02-21T07:20:32;101777.0;;;10.95;97.32
68376;BME280;55318;52.068;5.188;2024-02-21T07:23:44;101775.0;;;10.92;97.59
68376;BME280;55318;52.068;5.188;2024-02-21T07:25:20;101774.0;;;10.95;97.56
68376;BME280;55318;52.068;5.188;2024-02-21T07:26:56;101767.0;;;10.94;97.43
68376;BME280;55318;52.068;5.188;2024-02-21T07:30:09;101764.0;;;10.72;98.31
68376;BME280;55318;52.068;5.188;2024-02-21T07:31:46;101763.0;;;10.77;98.24
68376;BME280;55318;52.068;5.188;2024-02-21T07:33:22;101760.0;;;10.8;98.02
68376;BME280;55318;52.068;5.188;2024-02-21T07:36:34;101759.0;;;11.0;97.59
68376;BME280;55318;52.068;5.188;2024-02-21T07:38:11;101752.0;;;10.95;97.37
68376;BME280;55318;52.068;5.188;2024-02-21T07:39:47;101744.0;;;10.85;97.94
68376;BME280;55318;52.068;5.188;2024-02-21T07:41:24;101743.0;;;10.97;97.46
68376;BME280;55318;52.068;5.188;2024-02-21T07:44:36;101738.0;;;10.9;97.93
68376;BME280;55318;52.068;5.188;2024-02-21T07:46:13;101728.0;;;10.96;97.3
68376;BME280;55318;52.068;5.188;2024-02-21T07:47:49;101725.0;;;10.99;97.42
68376;BME280;55318;52.068;5.188;2024-02-21T07:51:01;101727.0;;;10.87;97.74
68376;BME280;55318;52.068;5.188;2024-02-21T07:52:37;101720.0;;;10.99;97.14
68376;BME280;55318;52.068;5.188;2024-02-21T07:54:14;101715.0;;;11.11;96.91
68376;BME280;55318;52.068;5.188;2024-02-21T07:57:26;101715.0;;;10.92;97.46
68376;BME280;55318;52.068;5.188;2024-02-21T07:59:02;101720.0;;;10.79;97.39
68376;BME280;55318;52.068;5.188;2024-02-21T08:00:38;101722.0;;;10.62;98.6
68376;BME280;55318;52.068;5.188;2024-02-21T08:03:52;101721.0;;;10.73;98.34
68376;BME280;55318;52.068;5.188;2024-02-21T08:05:28;101717.0;;;10.77;98.42
68376;BME280;55318;52.068;5.188;2024-02-21T08:07:04;101716.0;;;10.77;98.23
68376;BME280;55318;52.068;5.188;2024-02-21T08:08:40;101715.0;;;10.79;98.45
68376;BME280;55318;52.068;5.188;2024-02-21T08:11:54;101710.0;;;10.77;98.26
68376;BME280;55318;52.068;5.188;2024-02-21T08:13:30;101708.0;;;10.83;98.37
68376;BME280;55318;52.068;5.188;2024-02-21T08:15:08;101705.0;;;10.69;98.72
68376;BME280;55318;52.068;5.188;2024-02-21T08:18:24;101703.0;;;10.71;98.56
68376;BME280;55318;52.068;5.188;2024-02-21T08:20:00;101697.0;;;10.68;98.63
68376;BME280;55318;52.068;5.188;2024-02-21T08:21:36;101699.0;;;10.77;98.56
68376;BME280;55318;52.068;5.188;2024-02-21T08:24:48;101693.0;;;10.73;98.87
68376;BME280;55318;52.068;5.188;2024-02-21T08:26:24;101692.0;;;10.64;98.93
68376;BME280;55318;52.068;5.188;2024-02-21T08:28:00;101687.0;;;10.72;98.85
68376;BME280;55318;52.068;5.188;2024-02-21T08:29:36;101683.0;;;10.68;98.73
68376;BME280;55318;52.068;5.188;2024-02-21T08:32:54;101689.0;;;10.65;99.07
68376;BME280;55318;52.068;5.188;2024-02-21T08:34:30;101683.0;;;10.76;98.71
68376;BME280;55318;52.068;5.188;2024-02-21T08:36:06;101677.0;;;10.72;98.89
68376;BME280;55318;52.068;5.188;2024-02-21T08:39:19;101675.0;;;10.72;99.19
68376;BME280;55318;52.068;5.188;2024-02-21T08:40:55;101680.0;;;10.76;98.87
68376;BME280;55318;52.068;5.188;2024-02-21T08:42:31;101676.0;;;10.73;98.49
68376;BME280;55318;52.068;5.188;2024-02-21T08:45:46;101672.0;;;10.85;98.45
68376;BME280;55318;52.068;5.188;2024-02-21T08:47:22;101663.0;;;10.7;98.32
68376;BME280;55318;52.068;5.188;2024-02-21T08:48:58;101660.0;;;10.89;98.0
68376;BME280;55318;52.068;5.188;2024-02-21T08:50:34;101653.0;;;10.87;97.76
68376;BME280;55318;52.068;5.188;2024-02-21T08:53:48;101655.0;;;10.86;97.76
68376;BME280;55318;52.068;5.188;2024-02-21T08:55:25;101650.0;;;10.93;97.44
68376;BME280;55318;52.068;5.188;2024-02-21T08:57:01;101655.0;;;10.99;97.03
68376;BME280;55318;52.068;5.188;2024-02-21T09:00:16;101648.0;;;10.92;97.2
68376;BME280;55318;52.068;5.188;2024-02-21T09:01:52;101643.0;;;10.84;97.23
68376;BME280;55318;52.068;5.188;2024-02-21T09:03:28;101642.0;;;10.92;97.01
68376;BME280;55318;52.068;5.188;2024-02-21T09:05:05;101642.0;;;10.98;96.61
68376;BME280;55318;52.068;5.188;2024-02-21T09:08:20;101637.0;;;10.94;96.49
68376;BME280;55318;52.068;5.188;2024-02-21T09:09:57;101635.0;;;10.79;96.61
68376;BME280;55318;52.068;5.188;2024-02-21T09:11:33;101636.0;;;11.07;96.16
68376;BME280;55318;52.068;5.188;2024-02-21T09:14:46;101630.0;;;10.98;96.2
68376;BME280;55318;52.068;5.188;2024-02-21T09:16:22;101635.0;;;11.07;95.89
68376;BME280;55318;52.068;5.188;2024-02-21T09:17:58;101633.0;;;11.05;95.6
68376;BME280;55318;52.068;5.188;2024-02-21T09:21:11;101627.0;;;11.07;95.24
68376;BME280;55318;52.068;5.188;2024-02-21T09:22:48;101628.0;;;11.0;95.4
68376;BME280;55318;52.068;5.188;2024-02-21T09:24:24;101615.0;;;10.92;95.89
68376;BME280;55318;52.068;5.188;2024-02-21T09:26:00;101610.0;;;10.91;95.65
68376;BME280;55318;52.068;5.188;2024-02-21T09:29:14;101613.0;;;10.96;95.43
68376;BME280;55318;52.068;5.188;2024-02-21T09:30:51;101612.0;;;10.91;95.52
68376;BME280;55318;52.068;5.188;2024-02-21T09:32:27;101602.0;;;11.05;94.67
68376;BME280;55318;52.068;5.188;2024-02-21T09:35:39;101593.0;;;11.03;94.63
68376;BME280;55318;52.068;5.188;2024-02-21T09:37:15;101583.0;;;10.91;94.73
68376;BME280;55318;52.068;5.188;2024-02-21T09:38:52;101580.0;;;10.93;94.92
68376;BME280;55318;52.068;5.188;2024-02-21T09:42:11;101584.0;;;10.92;95.09
68376;BME280;55318;52.068;5.188;2024-02-21T09:43:49;101574.0;;;10.93;94.71
68376;BME280;55318;52.068;5.188;2024-02-21T09:45:26;101578.0;;;10.99;94.7
68376;BME280;55318;52.068;5.188;2024-02-21T09:47:03;101568.0;;;10.94;94.78
68376;BME280;55318;52.068;5.188;2024-02-21T09:50:34;101559.0;;;10.99;94.9
68376;BME280;55318;52.068;5.188;2024-02-21T09:52:15;101551.0;;;10.99;94.76
68376;BME280;55318;52.068;5.188;2024-02-21T09:53:53;101545.0;;;11.07;94.35
68376;BME280;55318;52.068;5.188;2024-02-21T09:55:31;101541.0;;;11.14;93.72
68376;BME280;55318;52.068;5.188;2024-02-21T09:58:46;101531.0;;;11.23;93.29
68376;BME280;55318;52.068;5.188;2024-02-21T10:00:22;101532.0;;;11.17;93.68
68376;BME280;55318;52.068;5.188;2024-02-21T10:02:02;101522.0;;;11.04;93.57
68376;BME280;55318;52.068;5.188;2024-02-21T10:03:38;101523.0;;;11.18;93.97
68376;BME280;55318;52.068;5.188;2024-02-21T10:06:50;101516.0;;;11.3;93.5
68376;BME280;55318;52.068;5.188;2024-02-21T10:08:26;101512.0;;;11.34;92.79
68376;BME280;55318;52.068;5.188;2024-02-21T10:10:04;101505.0;;;11.31;92.08
68376;BME280;55318;52.068;5.188;2024-02-21T10:13:24;101495.0;;;11.3;92.67
68376;BME280;55318;52.068;5.188;2024-02-21T10:15:01;101494.0;;;11.38;92.45
68376;BME280;55318;52.068;5.188;2024-02-21T10:16:38;101485.0;;;11.45;92.56
68376;BME280;55318;52.068;5.188;2024-02-21T10:19:54;101488.0;;;11.35;91.56
68376;BME280;55318;52.068;5.188;2024-02-21T10:21:30;101476.0;;;11.51;91.39
68376;BME280;55318;52.068;5.188;2024-02-21T10:23:06;101473.0;;;11.58;91.5
68376;BME280;55318;52.068;5.188;2024-02-21T10:24:45;101471.0;;;11.57;91.6
68376;BME280;55318;52.068;5.188;2024-02-21T10:27:58;101472.0;;;11.48;91.38
68376;BME280;55318;52.068;5.188;2024-02-21T10:29:34;101470.0;;;11.51;90.91
68376;BME280;55318;52.068;5.188;2024-02-21T10:31:21;101457.0;;;11.55;91.38
68376;BME280;55318;52.068;5.188;2024-02-21T10:32:57;101459.0;;;11.67;91.14
68376;BME280;55318;52.068;5.188;2024-02-21T10:36:11;101449.0;;;11.72;90.92
68376;BME280;55318;52.068;5.188;2024-02-21T10:37:48;101433.0;;;11.78;90.77
68376;BME280;55318;52.068;5.188;2024-02-21T10:39:24;101434.0;;;11.82;90.75
68376;BME280;55318;52.068;5.188;2024-02-21T10:42:37;101423.0;;;11.74;91.04
68376;BME280;55318;52.068;5.188;2024-02-21T10:44:14;101421.0;;;11.78;90.53
68376;BME280;55318;52.068;5.188;2024-02-21T10:45:54;101412.0;;;11.6;90.97
68376;BME280;55318;52.068;5.188;2024-02-21T10:49:22;101400.0;;;11.53;91.08
68376;BME280;55318;52.068;5.188;2024-02-21T10:51:02;101375.0;;;11.76;91.38
68376;BME280;55318;52.068;5.188;2024-02-21T10:52:54;101362.0;;;11.65;91.81
68376;BME280;55318;52.068;5.188;2024-02-21T10:54:44;101355.0;;;11.72;91.84
68376;BME280;55318;52.068;5.188;2024-02-21T10:56:22;101361.0;;;11.78;91.12
68376;BME280;55318;52.068;5.188;2024-02-21T10:58:08;101364.0;;;11.9;91.06
68376;BME280;55318;52.068;5.188;2024-02-21T11:01:24;101372.0;;;11.83;90.53
68376;BME280;55318;52.068;5.188;2024-02-21T11:03:03;101430.0;;;11.72;90.97
68376;BME280;55318;52.068;5.188;2024-02-21T11:04:40;101416.0;;;11.68;91.09
68376;BME280;55318;52.068;5.188;2024-02-21T11:07:56;101417.0;;;11.8;91.06